createdAt,value
2018-11-04T00:02:15.464Z,10.90
2018-11-04T00:04:43.852Z,10.90
2018-11-04T00:07:12.239Z,10.90
2018-11-04T00:09:40.652Z,10.90
2018-11-04T00:12:09.066Z,10.80
2018-11-04T00:14:37.448Z,10.80
2018-11-04T00:17:05.941Z,10.80
2018-11-04T00:19:34.318Z,10.80
2018-11-04T00:22:02.696Z,10.80
2018-11-04T00:24:31.085Z,10.80
2018-11-04T00:26:59.460Z,10.80
2018-11-04T00:29:28.149Z,10.80
2018-11-04T00:31:56.550Z,10.80
2018-11-04T00:34:24.943Z,10.80
2018-11-04T00:36:53.283Z,10.80
2018-11-04T00:39:22.552Z,10.80
2018-11-04T00:41:50.883Z,10.70
2018-11-04T00:44:19.272Z,10.70
2018-11-04T00:46:47.627Z,10.70
2018-11-04T00:49:15.976Z,10.70
2018-11-04T00:51:44.326Z,10.80
2018-11-04T00:54:15.509Z,10.80
2018-11-04T00:56:43.857Z,10.80
2018-11-04T00:59:12.269Z,10.70
2018-11-04T01:01:40.677Z,10.70
2018-11-04T01:04:09.071Z,10.70
2018-11-04T01:06:37.425Z,10.70
2018-11-04T01:09:08.289Z,10.70
2018-11-04T01:11:36.652Z,10.70
2018-11-04T01:14:05.101Z,10.70
2018-11-04T01:16:33.816Z,10.70
2018-11-04T01:19:02.192Z,10.70
2018-11-04T01:21:30.766Z,10.70
2018-11-04T01:23:59.107Z,10.60
2018-11-04T01:26:27.475Z,10.60
2018-11-04T01:28:55.868Z,10.60
2018-11-04T01:31:24.346Z,10.60
2018-11-04T01:33:52.736Z,10.60
2018-11-04T01:36:21.124Z,10.60
2018-11-04T01:38:49.520Z,10.60
2018-11-04T01:41:17.881Z,10.60
2018-11-04T01:43:46.262Z,10.60
2018-11-04T01:46:14.672Z,10.60
2018-11-04T01:48:43.036Z,10.70
2018-11-04T01:51:11.398Z,10.60
2018-11-04T01:53:39.739Z,10.60
2018-11-04T01:56:08.160Z,10.60
2018-11-04T01:58:39.165Z,10.60
2018-11-04T02:01:10.419Z,10.60
2018-11-04T02:03:38.756Z,10.60
2018-11-04T02:06:07.115Z,10.50
2018-11-04T02:08:35.506Z,10.60
2018-11-04T02:11:03.892Z,10.60
2018-11-04T02:13:32.261Z,10.60
2018-11-04T02:16:00.621Z,10.60
2018-11-04T02:18:28.972Z,10.60
2018-11-04T02:20:57.312Z,10.60
2018-11-04T02:27:03.809Z,10.50
2018-11-04T02:29:32.151Z,10.50
2018-11-04T02:32:00.569Z,10.50
2018-11-04T02:34:28.971Z,10.50
2018-11-04T02:43:41.649Z,10.40
2018-11-04T02:48:50.262Z,10.40
2018-11-04T02:51:18.602Z,10.50
2018-11-04T02:53:46.959Z,10.40
2018-11-04T02:56:15.328Z,10.50
2018-11-04T02:58:47.920Z,10.50
2018-11-04T03:01:16.275Z,10.50
2018-11-04T03:03:44.638Z,10.40
2018-11-04T03:09:33.144Z,10.40
2018-11-04T03:12:01.494Z,10.50
2018-11-04T03:14:36.392Z,10.50
2018-11-04T03:17:20.069Z,10.50
2018-11-04T03:19:48.461Z,10.50
2018-11-04T03:22:16.819Z,10.50
2018-11-04T03:24:46.099Z,10.40
2018-11-04T03:27:18.705Z,10.40
2018-11-04T03:29:47.121Z,10.40
2018-11-04T03:32:15.449Z,10.40
2018-11-04T03:34:43.796Z,10.40
2018-11-04T03:37:12.118Z,10.40
2018-11-04T03:39:40.456Z,10.40
2018-11-04T03:42:10.619Z,10.30
2018-11-04T03:44:49.171Z,10.30
2018-11-04T03:47:17.571Z,10.30
2018-11-04T03:49:45.896Z,10.30
2018-11-04T03:52:14.241Z,10.30
2018-11-04T03:54:42.696Z,10.20
2018-11-04T03:57:11.053Z,10.30
2018-11-04T03:59:39.394Z,10.30
2018-11-04T04:02:07.978Z,10.30
2018-11-04T04:04:36.428Z,10.30
2018-11-04T04:07:04.789Z,10.30
2018-11-04T04:09:33.365Z,10.30
2018-11-04T04:12:01.756Z,10.30
2018-11-04T04:14:30.129Z,10.30
2018-11-04T04:16:58.497Z,10.30
2018-11-04T04:19:26.856Z,10.30
2018-11-04T04:21:55.219Z,10.30
2018-11-04T04:24:23.550Z,10.30
2018-11-04T04:26:51.896Z,10.30
2018-11-04T04:29:20.243Z,10.20
2018-11-04T04:31:48.622Z,10.20
2018-11-04T04:34:16.968Z,10.20
2018-11-04T04:36:45.307Z,10.10
2018-11-04T04:39:13.789Z,10.20
2018-11-04T04:41:42.144Z,10.10
2018-11-04T04:44:12.812Z,10.10
2018-11-04T04:46:41.148Z,10.10
2018-11-04T04:49:15.055Z,10.10
2018-11-04T04:51:45.969Z,10.10
2018-11-04T04:54:21.810Z,10.10
2018-11-04T04:56:51.548Z,10.10
2018-11-04T04:59:25.059Z,10.00
2018-11-04T05:01:54.196Z,10.00
2018-11-04T05:04:22.774Z,10.00
2018-11-04T05:06:51.167Z,10.00
2018-11-04T05:09:19.508Z,10.00
2018-11-04T05:11:47.884Z,10.10
2018-11-04T05:14:19.059Z,10.20
2018-11-04T05:16:47.507Z,10.10
2018-11-04T05:19:20.080Z,10.10
2018-11-04T05:21:48.511Z,10.10
2018-11-04T05:24:23.864Z,10.10
2018-11-04T05:26:52.373Z,10.10
2018-11-04T05:29:20.750Z,10.10
2018-11-04T05:31:49.171Z,10.10
2018-11-04T05:34:17.496Z,10.00
2018-11-04T05:36:45.885Z,10.00
2018-11-04T05:39:14.286Z,10.10
2018-11-04T05:41:42.665Z,10.10
2018-11-04T05:44:11.011Z,10.10
2018-11-04T05:46:39.416Z,10.00
2018-11-04T05:49:07.835Z,10.00
2018-11-04T05:54:14.917Z,10.00
2018-11-04T05:56:43.289Z,10.00
2018-11-04T05:59:11.655Z,10.00
2018-11-04T06:01:39.979Z,10.10
2018-11-04T06:04:08.418Z,10.10
2018-11-04T06:06:36.761Z,10.10
2018-11-04T06:09:07.139Z,10.10
2018-11-04T06:11:35.493Z,10.10
2018-11-04T06:14:03.985Z,10.10
2018-11-04T06:16:32.380Z,10.20
2018-11-04T06:19:00.751Z,10.10
2018-11-04T06:21:29.077Z,10.10
2018-11-04T06:23:57.608Z,10.10
2018-11-04T06:26:25.969Z,10.10
2018-11-04T06:28:54.351Z,10.10
2018-11-04T06:31:22.765Z,10.10
2018-11-04T06:33:52.344Z,10.10
2018-11-04T06:36:22.336Z,10.10
2018-11-04T06:38:50.703Z,10.10
2018-11-04T06:41:19.131Z,10.10
2018-11-04T06:43:47.376Z,10.10
2018-11-04T06:46:15.801Z,10.20
2018-11-04T06:48:44.170Z,10.20
2018-11-04T06:51:12.591Z,10.20
2018-11-04T06:53:40.970Z,10.20
2018-11-04T06:56:09.320Z,10.30
2018-11-04T06:58:37.729Z,10.30
2018-11-04T07:01:06.025Z,10.30
2018-11-04T07:03:34.420Z,10.40
2018-11-04T07:06:02.781Z,10.40
2018-11-04T07:08:31.189Z,10.40
2018-11-04T07:11:16.062Z,10.50
2018-11-04T07:13:48.149Z,10.50
2018-11-04T07:16:16.505Z,10.50
2018-11-04T07:18:48.235Z,10.50
2018-11-04T07:21:16.600Z,10.50
2018-11-04T07:23:44.983Z,10.50
2018-11-04T07:26:13.389Z,10.50
2018-11-04T07:28:41.776Z,10.50
2018-11-04T07:31:10.144Z,10.50
2018-11-04T07:33:41.665Z,10.60
2018-11-04T07:36:10.008Z,10.70
2018-11-04T07:38:39.100Z,10.60
2018-11-04T07:41:11.124Z,10.70
2018-11-04T07:43:39.635Z,10.70
2018-11-04T07:46:09.921Z,10.70
2018-11-04T07:48:39.921Z,10.70
2018-11-04T07:51:08.273Z,10.70
2018-11-04T07:53:36.653Z,10.80
2018-11-04T07:56:05.146Z,10.80
2018-11-04T07:58:33.525Z,10.90
2018-11-04T08:01:05.067Z,11.00
2018-11-04T08:03:39.410Z,11.00
2018-11-04T08:06:07.744Z,11.10
2018-11-04T08:08:36.133Z,11.10
2018-11-04T08:11:04.652Z,11.20
2018-11-04T08:13:33.067Z,11.10
2018-11-04T08:16:01.372Z,11.20
2018-11-04T08:18:29.696Z,11.30
2018-11-04T08:20:58.086Z,11.30
2018-11-04T08:23:26.421Z,11.40
2018-11-04T08:25:54.791Z,11.40
2018-11-04T08:28:23.143Z,11.40
2018-11-04T08:30:51.687Z,11.40
2018-11-04T08:33:20.121Z,11.40
2018-11-04T08:35:48.465Z,11.40
2018-11-04T08:38:16.823Z,11.40
2018-11-04T08:40:45.239Z,11.40
2018-11-04T08:43:13.579Z,11.50
2018-11-04T08:45:41.953Z,11.50
2018-11-04T08:48:10.325Z,11.50
2018-11-04T08:50:38.687Z,11.60
2018-11-04T08:53:07.308Z,11.70
2018-11-04T08:55:35.639Z,11.70
2018-11-04T08:58:04.129Z,11.70
2018-11-04T09:00:32.508Z,11.70
2018-11-04T09:03:00.873Z,11.70
2018-11-04T09:05:29.288Z,11.60
2018-11-04T09:07:57.653Z,11.70
2018-11-04T09:10:26.040Z,11.80
2018-11-04T09:12:54.396Z,11.90
2018-11-04T09:15:22.761Z,12.00
2018-11-04T09:17:51.205Z,12.00
2018-11-04T09:20:19.626Z,12.10
2018-11-04T09:22:48.010Z,12.00
2018-11-04T09:25:16.379Z,12.10
2018-11-04T09:27:44.715Z,12.20
2018-11-04T09:30:14.286Z,12.20
2018-11-04T09:32:42.788Z,12.30
2018-11-04T09:35:11.528Z,12.40
2018-11-04T09:37:39.857Z,12.40
2018-11-04T09:40:09.733Z,12.50
2018-11-04T09:42:38.171Z,12.50
2018-11-04T09:45:06.929Z,12.60
2018-11-04T09:47:35.375Z,12.50
2018-11-04T09:50:03.984Z,12.60
2018-11-04T09:52:32.250Z,12.70
2018-11-04T09:55:00.634Z,12.80
2018-11-04T09:57:28.985Z,12.80
2018-11-04T09:59:57.389Z,12.80
2018-11-04T10:02:35.753Z,12.80
2018-11-04T10:05:04.208Z,12.60
2018-11-04T10:07:32.580Z,12.70
2018-11-04T10:10:00.947Z,12.80
2018-11-04T10:12:29.305Z,12.80
2018-11-04T10:14:57.681Z,12.90
2018-11-04T10:17:26.071Z,12.80
2018-11-04T10:19:55.073Z,13.00
2018-11-04T10:22:23.025Z,13.10
2018-11-04T10:24:51.741Z,13.30
2018-11-04T10:27:20.172Z,13.20
2018-11-04T10:29:48.560Z,13.30
2018-11-04T10:32:16.958Z,13.50
2018-11-04T10:34:45.347Z,13.50
2018-11-04T10:37:13.802Z,13.50
2018-11-04T10:39:42.136Z,13.50
2018-11-04T10:42:10.530Z,13.60
2018-11-04T10:44:38.888Z,13.60
2018-11-04T10:47:07.341Z,13.50
2018-11-04T10:49:35.878Z,13.60
2018-11-04T10:52:04.240Z,13.70
2018-11-04T10:54:32.596Z,13.70
2018-11-04T10:57:01.014Z,13.60
2018-11-04T10:59:29.338Z,13.70
2018-11-04T11:01:57.749Z,13.70
2018-11-04T11:04:26.142Z,13.90
2018-11-04T11:06:54.561Z,13.80
2018-11-04T11:09:23.018Z,13.90
2018-11-04T11:11:51.423Z,13.90
2018-11-04T11:14:19.804Z,14.00
2018-11-04T11:16:48.201Z,14.00
2018-11-04T11:19:16.545Z,14.00
2018-11-04T11:21:44.935Z,14.20
2018-11-04T11:24:13.350Z,14.10
2018-11-04T11:26:41.733Z,14.30
2018-11-04T11:29:10.114Z,14.30
2018-11-04T11:31:38.508Z,14.30
2018-11-04T11:34:06.858Z,14.30
2018-11-04T11:36:35.227Z,14.40
2018-11-04T11:39:04.905Z,14.60
2018-11-04T11:41:33.248Z,14.80
2018-11-04T11:44:01.628Z,14.80
2018-11-04T11:46:30.016Z,15.00
2018-11-04T11:48:58.388Z,15.20
2018-11-04T11:51:26.769Z,15.20
2018-11-04T11:53:55.179Z,15.20
2018-11-04T11:56:23.636Z,15.00
2018-11-04T11:58:52.152Z,15.00
2018-11-04T12:01:20.581Z,15.10
2018-11-04T12:03:48.993Z,15.20
2018-11-04T12:06:17.440Z,15.00
2018-11-04T12:08:45.880Z,14.90
2018-11-04T12:11:14.496Z,14.90
2018-11-04T12:13:42.918Z,14.80
2018-11-04T12:16:11.451Z,15.10
2018-11-04T12:18:40.221Z,15.20
2018-11-04T12:21:08.633Z,15.10
2018-11-04T12:23:37.017Z,14.90
2018-11-04T12:26:05.913Z,14.70
2018-11-04T12:28:34.312Z,14.50
2018-11-04T12:31:02.721Z,14.50
2018-11-04T12:33:31.088Z,14.80
2018-11-04T12:35:59.435Z,14.90
2018-11-04T12:38:27.839Z,15.00
2018-11-04T12:40:56.207Z,15.10
2018-11-04T12:43:24.610Z,15.20
2018-11-04T12:45:53.048Z,15.10
2018-11-04T12:48:21.402Z,15.20
2018-11-04T12:50:49.790Z,15.30
2018-11-04T12:53:18.198Z,15.30
2018-11-04T12:55:46.548Z,15.40
2018-11-04T12:58:14.885Z,15.40
2018-11-04T13:00:43.300Z,15.30
2018-11-04T13:03:11.749Z,15.30
2018-11-04T13:05:40.145Z,15.40
2018-11-04T13:08:08.536Z,15.40
2018-11-04T13:10:36.902Z,15.50
2018-11-04T13:13:05.564Z,15.20
2018-11-04T13:15:33.943Z,15.10
2018-11-04T13:18:02.359Z,15.20
2018-11-04T13:20:30.750Z,15.10
2018-11-04T13:22:59.155Z,15.20
2018-11-04T13:25:27.500Z,15.00
2018-11-04T13:27:55.949Z,15.10
2018-11-04T13:30:24.337Z,15.10
2018-11-04T13:32:52.687Z,15.20
2018-11-04T13:35:21.040Z,15.00
2018-11-04T13:37:49.471Z,14.70
2018-11-04T13:40:17.884Z,14.70
2018-11-04T13:42:46.286Z,14.50
2018-11-04T13:45:14.666Z,14.50
2018-11-04T13:47:43.067Z,14.50
2018-11-04T13:50:14.113Z,14.60
2018-11-04T13:52:43.656Z,14.70
2018-11-04T13:55:12.033Z,14.70
2018-11-04T13:57:40.660Z,14.80
2018-11-04T14:00:11.644Z,14.70
2018-11-04T14:02:40.071Z,14.60
2018-11-04T14:05:09.402Z,14.60
2018-11-04T14:07:38.006Z,14.50
2018-11-04T14:10:07.440Z,14.50
2018-11-04T14:12:35.810Z,14.30
2018-11-04T14:15:04.392Z,14.40
2018-11-04T14:17:32.785Z,14.20
2018-11-04T14:20:01.762Z,14.40
2018-11-04T14:22:30.267Z,14.30
2018-11-04T14:24:58.600Z,14.30
2018-11-04T14:27:27.049Z,14.20
2018-11-04T14:29:55.394Z,14.30
2018-11-04T14:32:23.825Z,14.10
2018-11-04T14:34:52.213Z,14.20
2018-11-04T14:37:20.616Z,14.20
2018-11-04T14:39:49.042Z,14.20
2018-11-04T14:42:17.407Z,14.20
2018-11-04T14:44:46.396Z,14.20
2018-11-04T14:47:14.850Z,14.20
2018-11-04T14:49:43.231Z,14.10
2018-11-04T14:52:11.639Z,14.10
2018-11-04T14:54:40.027Z,14.00
2018-11-04T14:57:08.412Z,13.80
2018-11-04T14:59:36.821Z,13.70
2018-11-04T15:02:05.275Z,13.70
2018-11-04T15:04:33.710Z,13.70
2018-11-04T15:07:02.163Z,13.70
2018-11-04T15:09:30.622Z,13.70
2018-11-04T15:11:59.044Z,13.60
2018-11-04T15:14:27.422Z,13.60
2018-11-04T15:16:55.850Z,13.60
2018-11-04T15:19:24.230Z,13.70
2018-11-04T15:21:52.612Z,13.70
2018-11-04T15:24:20.997Z,13.60
2018-11-04T15:26:49.421Z,13.50
2018-11-04T15:29:17.872Z,13.50
2018-11-04T15:31:46.288Z,13.50
2018-11-04T15:34:14.750Z,13.50
2018-11-04T15:36:43.121Z,13.30
2018-11-04T15:39:12.853Z,13.30
2018-11-04T15:41:41.303Z,13.30
2018-11-04T15:44:10.119Z,13.40
2018-11-04T15:46:38.511Z,13.30
2018-11-04T15:49:07.395Z,13.30
2018-11-04T15:51:35.796Z,13.40
2018-11-04T15:54:04.188Z,13.10
2018-11-04T15:56:32.622Z,13.20
2018-11-04T15:59:01.052Z,13.30
2018-11-04T16:01:29.512Z,13.10
2018-11-04T16:03:57.976Z,13.30
2018-11-04T16:06:26.422Z,13.20
2018-11-04T16:08:54.790Z,13.20
2018-11-04T16:11:23.268Z,13.10
2018-11-04T16:13:51.773Z,13.10
2018-11-04T16:16:20.231Z,13.00
2018-11-04T16:18:48.773Z,13.00
2018-11-04T16:21:17.067Z,12.90
2018-11-04T16:23:45.623Z,12.90
2018-11-04T16:26:14.026Z,12.90
2018-11-04T16:28:42.498Z,12.90
2018-11-04T16:31:10.911Z,12.80
2018-11-04T16:33:39.293Z,13.00
2018-11-04T16:36:07.670Z,12.90
2018-11-04T16:38:36.136Z,13.00
2018-11-04T16:41:04.724Z,12.90
2018-11-04T16:43:33.202Z,13.00
2018-11-04T16:46:01.580Z,12.90
2018-11-04T16:48:30.012Z,12.90
2018-11-04T16:50:58.482Z,12.90
2018-11-04T16:53:27.019Z,12.80
2018-11-04T16:55:55.925Z,12.80
2018-11-04T16:58:24.911Z,12.80
2018-11-04T17:00:53.725Z,12.80
2018-11-04T17:03:23.608Z,12.90
2018-11-04T17:05:52.223Z,12.80
2018-11-04T17:08:20.653Z,12.80
2018-11-04T17:10:49.144Z,12.80
2018-11-04T17:13:17.539Z,12.70
2018-11-04T17:15:46.188Z,12.70
2018-11-04T17:18:14.709Z,12.60
2018-11-04T17:20:43.109Z,12.80
2018-11-04T17:23:11.535Z,12.80
2018-11-04T17:25:39.936Z,12.80
2018-11-04T17:28:08.395Z,12.70
2018-11-04T17:30:36.825Z,12.70
2018-11-04T17:33:05.312Z,12.70
2018-11-04T17:35:33.829Z,12.70
2018-11-04T17:38:02.243Z,12.60
2018-11-04T17:40:30.734Z,12.60
2018-11-04T17:42:59.182Z,12.60
2018-11-04T17:45:27.602Z,12.60
2018-11-04T17:47:56.066Z,12.60
2018-11-04T17:50:24.467Z,12.70
2018-11-04T17:52:53.015Z,12.60
2018-11-04T17:55:21.523Z,12.60
2018-11-04T17:57:50.004Z,12.60
2018-11-04T18:00:18.717Z,12.60
2018-11-04T18:02:47.196Z,12.60
2018-11-04T18:05:15.695Z,12.60
2018-11-04T18:07:44.296Z,12.60
2018-11-04T18:10:13.910Z,12.60
2018-11-04T18:12:43.152Z,12.50
2018-11-04T18:15:12.499Z,12.60
2018-11-04T18:17:42.009Z,12.60
2018-11-04T18:20:11.692Z,12.60
2018-11-04T18:22:40.144Z,12.50
2018-11-04T18:25:09.584Z,12.50
2018-11-04T18:27:38.131Z,12.60
2018-11-04T18:30:09.245Z,12.40
2018-11-04T18:32:37.924Z,12.50
2018-11-04T18:35:06.338Z,12.50
2018-11-04T18:37:34.999Z,12.50
2018-11-04T18:40:03.466Z,12.40
2018-11-04T18:42:31.878Z,12.40
2018-11-04T18:45:00.346Z,12.30
2018-11-04T18:47:29.456Z,12.40
2018-11-04T18:49:58.116Z,12.40
2018-11-04T18:52:26.603Z,12.40
2018-11-04T18:54:58.701Z,12.40
2018-11-04T18:57:27.134Z,12.30
2018-11-04T18:59:55.668Z,12.40
2018-11-04T19:02:24.081Z,12.40
2018-11-04T19:04:52.514Z,12.50
2018-11-04T19:07:20.954Z,12.40
2018-11-04T19:09:49.512Z,12.40
2018-11-04T19:12:17.937Z,12.40
2018-11-04T19:14:46.343Z,12.40
2018-11-04T19:17:14.788Z,12.40
2018-11-04T19:19:43.184Z,12.40
2018-11-04T19:22:11.652Z,12.40
2018-11-04T19:24:40.229Z,12.40
2018-11-04T19:27:08.776Z,12.30
2018-11-04T19:29:37.246Z,12.40
2018-11-04T19:32:05.908Z,12.40
2018-11-04T19:34:34.364Z,12.40
2018-11-04T19:37:02.795Z,12.40
2018-11-04T19:39:31.363Z,12.40
2018-11-04T19:41:59.874Z,12.40
2018-11-04T19:44:28.428Z,12.40
2018-11-04T19:46:57.013Z,12.40
2018-11-04T19:49:25.529Z,12.40
2018-11-04T19:51:54.182Z,12.50
2018-11-04T19:54:22.905Z,12.40
2018-11-04T19:56:51.494Z,12.40
2018-11-04T19:59:20.084Z,12.50
2018-11-04T20:01:48.406Z,12.50
2018-11-04T20:04:17.174Z,12.60
2018-11-04T20:06:46.130Z,12.50
2018-11-04T20:09:17.003Z,12.40
2018-11-04T20:11:46.084Z,12.40
2018-11-04T20:14:25.125Z,12.40
2018-11-04T20:16:54.771Z,12.30
2018-11-04T20:19:28.874Z,12.30
2018-11-04T20:21:57.307Z,12.30
2018-11-04T20:24:31.233Z,12.40
2018-11-04T20:26:59.610Z,12.40
2018-11-04T20:29:28.091Z,12.40
2018-11-04T20:33:07.165Z,12.40
2018-11-04T20:35:36.550Z,12.30
2018-11-04T20:38:07.281Z,12.40
2018-11-04T20:40:42.319Z,12.30
2018-11-04T20:43:11.090Z,12.20
2018-11-04T20:45:39.530Z,12.30
2018-11-04T20:48:14.054Z,12.40
2018-11-04T20:50:47.877Z,12.40
2018-11-04T20:53:16.326Z,12.30
2018-11-04T20:55:50.168Z,12.30
2018-11-04T20:58:18.759Z,12.30
2018-11-04T21:00:47.122Z,12.20
2018-11-04T21:03:15.686Z,12.30
2018-11-04T21:05:44.337Z,12.30
2018-11-04T21:08:13.280Z,12.20
2018-11-04T21:10:41.661Z,12.30
2018-11-04T21:13:10.052Z,12.30
2018-11-04T21:15:38.552Z,12.30
2018-11-04T21:18:06.962Z,12.20
2018-11-04T21:20:35.327Z,12.30
2018-11-04T21:23:03.808Z,12.20
2018-11-04T21:25:32.467Z,12.20
2018-11-04T21:28:00.712Z,12.10
2018-11-04T21:30:29.098Z,12.10
2018-11-04T21:32:57.504Z,12.10
2018-11-04T21:35:25.890Z,12.10
2018-11-04T21:37:54.352Z,12.20
2018-11-04T21:40:22.744Z,12.00
2018-11-04T21:42:51.309Z,12.10
2018-11-04T21:45:19.671Z,12.10
2018-11-04T21:47:48.078Z,12.10
2018-11-04T21:50:16.550Z,12.10
2018-11-04T21:52:45.358Z,12.00
2018-11-04T21:55:14.043Z,12.00
2018-11-04T21:57:43.158Z,12.00
2018-11-04T22:00:13.104Z,12.00
2018-11-04T22:02:41.744Z,12.10
2018-11-04T22:05:10.789Z,12.00
2018-11-04T22:07:39.829Z,12.00
2018-11-04T22:10:10.298Z,12.10
2018-11-04T22:12:38.757Z,11.90
2018-11-04T22:15:07.718Z,12.00
2018-11-04T22:17:36.261Z,12.00
2018-11-04T22:20:05.172Z,12.00
2018-11-04T22:22:33.568Z,12.00
2018-11-04T22:25:01.982Z,12.10
2018-11-04T22:27:30.390Z,12.10
2018-11-04T22:29:58.809Z,12.00
2018-11-04T22:32:27.233Z,12.00
2018-11-04T22:34:55.593Z,12.10
2018-11-04T22:37:24.037Z,12.20
2018-11-04T22:39:52.595Z,12.10
2018-11-04T22:42:21.057Z,12.10
2018-11-04T22:44:49.488Z,12.10
2018-11-04T22:47:17.853Z,12.00
2018-11-04T22:49:46.236Z,11.90
2018-11-04T22:52:14.561Z,11.90
2018-11-04T22:54:42.888Z,11.90
2018-11-04T22:57:11.269Z,11.90
2018-11-04T22:59:39.681Z,11.90
2018-11-04T23:02:08.060Z,12.00
2018-11-04T23:04:41.739Z,12.10
2018-11-04T23:07:10.105Z,12.10
2018-11-04T23:09:38.455Z,12.00
2018-11-04T23:12:06.838Z,11.90
2018-11-04T23:14:35.236Z,11.90
2018-11-04T23:17:03.694Z,11.90
2018-11-04T23:19:32.117Z,12.10
2018-11-04T23:22:00.496Z,12.00
2018-11-04T23:24:28.872Z,12.10
2018-11-04T23:26:57.342Z,12.00
2018-11-04T23:29:25.691Z,11.90
2018-11-04T23:31:54.136Z,11.80
2018-11-04T23:34:22.524Z,11.80
2018-11-04T23:36:50.888Z,11.90
2018-11-04T23:39:19.310Z,11.90
2018-11-04T23:41:47.657Z,11.80
2018-11-04T23:44:16.101Z,11.80
2018-11-04T23:46:44.488Z,11.70
2018-11-04T23:49:12.862Z,11.70
2018-11-04T23:51:41.264Z,11.80
2018-11-04T23:54:09.771Z,11.70
2018-11-04T23:56:38.158Z,11.70
2018-11-04T23:59:06.561Z,11.80
